createdAt,value
2022-11-01T00:01:45.802Z,5.60
2022-11-01T00:04:13.009Z,5.13
2022-11-01T00:06:39.539Z,4.80
2022-11-01T00:09:06.707Z,4.73
2022-11-01T00:11:33.324Z,5.00
2022-11-01T00:13:59.879Z,5.10
2022-11-01T00:16:26.394Z,5.43
2022-11-01T00:18:53.533Z,5.27
2022-11-01T00:21:20.211Z,5.17
2022-11-01T00:23:47.608Z,5.27
2022-11-01T00:26:14.767Z,4.37
2022-11-01T00:28:41.311Z,4.13
2022-11-01T00:31:10.305Z,4.40
2022-11-01T00:33:41.924Z,5.00
2022-11-01T00:36:08.689Z,4.90
2022-11-01T00:38:35.501Z,4.23
2022-11-01T00:41:04.168Z,4.03
2022-11-01T00:43:31.440Z,4.03
2022-11-01T00:45:58.175Z,3.77
2022-11-01T00:48:24.744Z,3.87
2022-11-01T00:50:51.306Z,3.50
2022-11-01T00:53:18.001Z,3.77
2022-11-01T00:55:44.521Z,3.70
2022-11-01T00:58:11.111Z,4.00
2022-11-01T01:00:37.669Z,4.10
2022-11-01T01:03:04.871Z,3.80
2022-11-01T01:05:31.888Z,3.70
2022-11-01T01:07:58.383Z,3.60
2022-11-01T01:10:24.944Z,3.73
2022-11-01T01:12:51.466Z,3.77
2022-11-01T01:15:18.401Z,3.60
2022-11-01T01:17:44.943Z,3.40
2022-11-01T01:20:11.737Z,3.50
2022-11-01T01:22:38.371Z,3.63
2022-11-01T01:25:05.119Z,4.40
2022-11-01T01:27:31.715Z,3.53
2022-11-01T01:29:58.606Z,3.77
2022-11-01T01:32:25.207Z,4.07
2022-11-01T01:34:51.722Z,3.80
2022-11-01T01:37:18.260Z,3.63
2022-11-01T01:39:44.877Z,4.50
2022-11-01T01:42:15.238Z,4.03
2022-11-01T01:47:35.689Z,5.57
2022-11-01T01:52:59.496Z,4.30
2022-11-01T01:55:27.540Z,4.30
2022-11-01T01:57:54.308Z,4.23
2022-11-01T02:00:20.936Z,3.63
2022-11-01T02:02:47.480Z,4.10
2022-11-01T02:05:26.336Z,4.43
2022-11-01T02:07:53.066Z,4.23
2022-11-01T02:10:19.669Z,4.47
2022-11-01T02:12:49.219Z,4.10
2022-11-01T02:15:16.561Z,3.90
2022-11-01T02:17:46.574Z,3.60
2022-11-01T02:20:19.363Z,4.53
2022-11-01T02:22:54.996Z,4.13
2022-11-01T02:25:35.366Z,4.33
2022-11-01T02:28:22.282Z,3.83
2022-11-01T02:31:04.209Z,4.40
2022-11-01T02:33:33.122Z,4.27
2022-11-01T02:36:03.942Z,4.20
2022-11-01T02:38:39.896Z,4.37
2022-11-01T02:41:20.935Z,4.30
2022-11-01T02:43:59.720Z,3.80
2022-11-01T02:47:04.369Z,4.10
2022-11-01T02:49:32.811Z,3.57
2022-11-01T02:51:59.337Z,3.50
2022-11-01T02:54:31.628Z,3.70
2022-11-01T02:57:03.611Z,4.10
2022-11-01T02:59:30.153Z,3.77
2022-11-01T03:02:01.522Z,5.03
2022-11-01T03:04:28.159Z,4.73
2022-11-01T03:06:58.518Z,4.83
2022-11-01T03:09:25.114Z,5.10
2022-11-01T03:11:51.591Z,4.67
2022-11-01T03:14:23.737Z,4.43
2022-11-01T03:16:50.423Z,5.07
2022-11-01T03:19:35.723Z,4.73
2022-11-01T03:22:19.472Z,5.13
2022-11-01T03:24:50.602Z,5.50
2022-11-01T03:27:25.950Z,5.23
2022-11-01T03:29:57.164Z,5.20
2022-11-01T03:32:25.155Z,5.10
2022-11-01T03:34:52.569Z,4.67
2022-11-01T03:37:20.242Z,4.20
2022-11-01T03:39:49.819Z,4.50
2022-11-01T03:42:18.243Z,4.30
2022-11-01T03:44:45.446Z,5.17
2022-11-01T03:47:12.463Z,4.50
2022-11-01T03:49:39.033Z,4.37
2022-11-01T03:52:06.336Z,4.30
2022-11-01T03:54:32.798Z,4.70
2022-11-01T03:56:59.588Z,4.67
2022-11-01T03:59:26.746Z,4.40
2022-11-01T04:01:53.815Z,5.27
2022-11-01T04:04:20.927Z,4.40
2022-11-01T04:06:47.475Z,4.50
2022-11-01T04:09:14.107Z,4.07
2022-11-01T04:11:40.722Z,4.07
2022-11-01T04:14:26.419Z,4.57
2022-11-01T04:17:11.667Z,4.90
2022-11-01T04:19:56.730Z,3.40
2022-11-01T04:22:24.671Z,3.60
2022-11-01T04:24:51.341Z,3.50
2022-11-01T04:27:17.875Z,3.13
2022-11-01T04:29:44.411Z,3.13
2022-11-01T04:32:11.013Z,2.93
2022-11-01T04:34:43.560Z,2.97
2022-11-01T04:37:10.261Z,3.20
2022-11-01T04:39:36.986Z,2.87
2022-11-01T04:42:03.601Z,3.07
2022-11-01T04:44:30.094Z,3.00
2022-11-01T04:46:56.731Z,3.40
2022-11-01T04:49:23.237Z,4.00
2022-11-01T04:51:49.843Z,3.57
2022-11-01T04:54:16.864Z,3.97
2022-11-01T04:56:43.567Z,4.40
2022-11-01T04:59:10.102Z,4.63
2022-11-01T05:01:36.680Z,4.37
2022-11-01T05:04:03.479Z,4.83
2022-11-01T05:06:30.087Z,4.10
2022-11-01T05:08:56.884Z,4.77
2022-11-01T05:11:25.909Z,4.37
2022-11-01T05:13:52.603Z,4.47
2022-11-01T05:16:20.505Z,5.43
2022-11-01T05:18:47.790Z,4.43
2022-11-01T05:21:14.436Z,5.03
2022-11-01T05:23:41.055Z,5.33
2022-11-01T05:26:07.676Z,7.67
2022-11-01T05:28:34.762Z,6.30
2022-11-01T05:31:01.466Z,5.80
2022-11-01T05:33:28.087Z,4.93
2022-11-01T05:35:55.200Z,5.47
2022-11-01T05:38:21.696Z,5.17
2022-11-01T05:40:48.680Z,5.83
2022-11-01T05:43:15.209Z,5.37
2022-11-01T05:45:41.838Z,5.70
2022-11-01T05:48:08.515Z,5.40
2022-11-01T05:50:35.194Z,5.67
2022-11-01T05:53:08.036Z,5.67
2022-11-01T05:55:36.321Z,5.97
2022-11-01T05:58:03.282Z,6.07
2022-11-01T06:00:30.196Z,5.97
2022-11-01T06:03:00.868Z,5.73
2022-11-01T06:05:28.283Z,6.83
2022-11-01T06:07:55.065Z,6.20
2022-11-01T06:10:22.066Z,6.40
2022-11-01T06:12:48.651Z,6.60
2022-11-01T06:15:15.360Z,6.10
2022-11-01T06:17:42.105Z,7.80
2022-11-01T06:20:09.224Z,7.20
2022-11-01T06:22:36.384Z,8.83
2022-11-01T06:25:03.657Z,8.20
2022-11-01T06:27:33.786Z,8.07
2022-11-01T06:30:01.212Z,7.67
2022-11-01T06:32:28.734Z,8.87
2022-11-01T06:34:56.186Z,8.73
2022-11-01T06:37:22.918Z,8.07
2022-11-01T06:39:49.492Z,10.10
2022-11-01T06:42:16.154Z,9.40
2022-11-01T06:44:43.133Z,11.03
2022-11-01T06:47:09.915Z,11.43
2022-11-01T06:49:36.511Z,12.03
2022-11-01T06:52:03.472Z,13.20
2022-11-01T06:54:30.834Z,12.47
2022-11-01T06:56:58.432Z,12.00
2022-11-01T06:59:25.171Z,11.93
2022-11-01T07:01:53.256Z,12.20
2022-11-01T07:04:21.287Z,11.67
2022-11-01T07:06:48.327Z,11.10
2022-11-01T07:09:15.113Z,11.37
2022-11-01T07:11:41.785Z,11.53
2022-11-01T07:14:09.355Z,11.37
2022-11-01T07:16:35.923Z,10.70
2022-11-01T07:19:02.565Z,11.40
2022-11-01T07:21:29.168Z,11.40
2022-11-01T07:23:55.852Z,11.70
2022-11-01T07:26:22.860Z,12.17
2022-11-01T07:28:49.507Z,13.67
2022-11-01T07:31:16.150Z,12.93
2022-11-01T07:33:42.774Z,11.23
2022-11-01T07:36:09.361Z,12.03
2022-11-01T07:38:36.125Z,12.63
2022-11-01T07:41:04.745Z,12.80
2022-11-01T07:43:31.644Z,12.23
2022-11-01T07:45:58.888Z,12.63
2022-11-01T07:48:26.045Z,12.63
2022-11-01T07:50:55.134Z,12.77
2022-11-01T07:53:21.773Z,12.53
2022-11-01T07:55:48.394Z,13.93
2022-11-01T07:58:15.331Z,13.63
2022-11-01T08:00:42.088Z,13.87
2022-11-01T08:03:09.382Z,13.57
2022-11-01T08:05:35.955Z,14.23
2022-11-01T08:08:03.237Z,14.27
2022-11-01T08:10:30.232Z,14.07
2022-11-01T08:13:00.718Z,14.93
2022-11-01T08:15:27.314Z,14.87
2022-11-01T08:17:55.311Z,14.50
2022-11-01T08:20:21.887Z,14.07
2022-11-01T08:22:48.575Z,14.27
2022-11-01T08:25:15.273Z,13.53
2022-11-01T08:27:42.011Z,14.43
2022-11-01T08:30:09.338Z,13.50
2022-11-01T08:32:37.078Z,14.17
2022-11-01T08:35:04.549Z,14.60
2022-11-01T08:37:31.431Z,15.30
2022-11-01T08:39:58.206Z,14.73
2022-11-01T08:42:24.823Z,14.87
2022-11-01T08:44:51.597Z,14.00
2022-11-01T08:47:18.367Z,14.33
2022-11-01T08:49:46.129Z,14.43
2022-11-01T08:52:13.127Z,16.23
2022-11-01T08:54:40.557Z,15.97
2022-11-01T08:57:08.338Z,15.60
2022-11-01T08:59:35.536Z,17.27
2022-11-01T09:02:02.542Z,18.70
2022-11-01T09:04:29.947Z,18.03
2022-11-01T09:06:56.601Z,17.37
2022-11-01T09:09:23.424Z,17.53
2022-11-01T09:11:50.252Z,18.13
2022-11-01T09:14:17.482Z,17.97
2022-11-01T09:16:44.182Z,18.83
2022-11-01T09:19:10.988Z,18.23
2022-11-01T09:21:37.625Z,20.37
2022-11-01T09:24:04.261Z,21.33
2022-11-01T09:26:30.883Z,21.37
2022-11-01T09:28:58.817Z,20.83
2022-11-01T09:31:25.502Z,21.73
2022-11-01T09:33:53.907Z,20.93
2022-11-01T09:36:21.405Z,23.07
2022-11-01T09:38:48.098Z,23.60
2022-11-01T09:41:14.767Z,25.10
2022-11-01T09:43:41.351Z,25.60
2022-11-01T09:46:07.881Z,26.80
2022-11-01T09:48:34.621Z,26.83
2022-11-01T09:51:01.799Z,26.23
2022-11-01T09:53:28.586Z,25.73
2022-11-01T09:55:59.766Z,25.23
2022-11-01T09:58:45.193Z,25.73
2022-11-01T10:01:15.547Z,26.27
2022-11-01T10:03:42.610Z,25.20
2022-11-01T10:06:09.672Z,26.10
2022-11-01T10:08:45.274Z,24.33
2022-11-01T10:11:14.773Z,24.90
2022-11-01T10:13:41.349Z,26.27
2022-11-01T10:16:17.315Z,27.03
2022-11-01T10:18:50.751Z,26.00
2022-11-01T10:21:17.441Z,24.77
2022-11-01T10:23:50.658Z,23.07
2022-11-01T10:26:22.496Z,22.57
2022-11-01T10:28:49.136Z,23.70
2022-11-01T10:31:16.340Z,24.13
2022-11-01T10:33:52.601Z,24.90
2022-11-01T10:36:24.109Z,22.90
2022-11-01T10:41:49.002Z,24.10
2022-11-01T10:44:17.034Z,23.70
2022-11-01T10:46:45.493Z,24.57
2022-11-01T10:49:24.515Z,23.57
2022-11-01T10:51:52.302Z,21.53
2022-11-01T10:54:20.925Z,21.57
2022-11-01T10:56:47.798Z,24.47
2022-11-01T10:59:19.075Z,23.67
2022-11-01T11:01:45.902Z,23.60
2022-11-01T11:04:14.180Z,24.93
2022-11-01T11:06:40.835Z,27.53
2022-11-01T11:09:09.699Z,26.30
2022-11-01T11:11:37.368Z,29.43
2022-11-01T11:14:05.280Z,28.77
2022-11-01T11:16:43.373Z,28.20
2022-11-01T11:19:20.107Z,28.10
2022-11-01T11:21:47.768Z,28.27
2022-11-01T11:24:26.151Z,25.17
2022-11-01T11:26:55.197Z,26.83
2022-11-01T11:29:28.511Z,26.87
2022-11-01T11:31:56.074Z,28.67
2022-11-01T11:34:24.745Z,27.50
2022-11-01T11:36:53.722Z,27.67
2022-11-01T11:39:23.429Z,28.17
2022-11-01T11:41:50.041Z,26.83
2022-11-01T11:44:37.804Z,25.87
2022-11-01T11:47:04.500Z,24.60
2022-11-01T11:49:32.447Z,24.23
2022-11-01T11:51:59.264Z,25.30
2022-11-01T11:54:31.842Z,23.70
2022-11-01T11:57:08.864Z,24.30
2022-11-01T11:59:35.741Z,25.87
2022-11-01T12:02:03.923Z,25.03
2022-11-01T12:04:39.049Z,24.30
2022-11-01T12:07:08.255Z,25.27
2022-11-01T12:09:45.411Z,25.60
2022-11-01T12:12:24.268Z,24.93
2022-11-01T12:14:51.827Z,25.20
2022-11-01T12:17:25.551Z,24.63
2022-11-01T12:20:11.110Z,23.30
2022-11-01T12:22:38.970Z,26.27
2022-11-01T12:25:06.768Z,25.47
2022-11-01T12:27:35.060Z,26.13
2022-11-01T12:30:05.124Z,24.60
2022-11-01T12:32:33.923Z,25.37
2022-11-01T12:35:04.521Z,24.50
2022-11-01T12:37:43.827Z,25.07
2022-11-01T12:40:17.396Z,23.80
2022-11-01T12:42:51.508Z,23.97
2022-11-01T12:45:37.053Z,23.13
2022-11-01T12:48:06.030Z,23.40
2022-11-01T12:51:03.087Z,24.07
2022-11-01T12:53:35.164Z,21.57
2022-11-01T12:56:01.940Z,22.43
2022-11-01T12:58:33.475Z,22.23
2022-11-01T13:01:02.406Z,23.03
2022-11-01T13:03:42.899Z,21.80
2022-11-01T13:06:22.001Z,19.63
2022-11-01T13:09:21.935Z,19.30
2022-11-01T13:11:51.128Z,19.23
2022-11-01T13:14:21.328Z,20.37
2022-11-01T13:16:49.613Z,18.80
2022-11-01T13:19:19.577Z,20.77
2022-11-01T13:21:46.371Z,19.43
2022-11-01T13:24:13.592Z,19.40
2022-11-01T13:26:45.152Z,18.77
2022-11-01T13:29:27.618Z,18.97
2022-11-01T13:32:06.201Z,19.90
2022-11-01T13:35:06.189Z,19.40
2022-11-01T13:37:38.362Z,19.13
2022-11-01T13:40:13.547Z,18.93
2022-11-01T13:42:41.750Z,20.17
2022-11-01T13:45:27.254Z,19.90
2022-11-01T13:48:08.047Z,20.53
2022-11-01T13:50:40.885Z,20.10
2022-11-01T13:53:10.353Z,22.03
2022-11-01T13:55:39.080Z,21.33
2022-11-01T13:58:06.077Z,22.00
2022-11-01T14:00:34.111Z,21.37
2022-11-01T14:03:01.257Z,21.90
2022-11-01T14:05:36.015Z,22.30
2022-11-01T14:08:21.464Z,20.73
2022-11-01T14:10:48.493Z,18.80
2022-11-01T14:13:15.912Z,19.20
2022-11-01T14:16:09.135Z,19.03
2022-11-01T14:19:19.129Z,18.77
2022-11-01T14:21:48.354Z,20.27
2022-11-01T14:24:19.761Z,20.47
2022-11-01T14:26:47.471Z,22.47
2022-11-01T14:29:14.252Z,23.30
2022-11-01T14:31:41.258Z,22.27
2022-11-01T14:34:09.017Z,22.17
2022-11-01T14:36:37.252Z,21.37
2022-11-01T14:39:15.521Z,20.30
2022-11-01T14:41:42.675Z,21.00
2022-11-01T14:44:15.124Z,20.43
2022-11-01T14:46:46.405Z,22.80
2022-11-01T14:49:17.009Z,22.50
2022-11-01T14:51:48.601Z,22.40
2022-11-01T14:54:30.543Z,23.77
2022-11-01T14:56:57.299Z,24.43
2022-11-01T14:59:23.837Z,24.57
2022-11-01T15:01:51.706Z,25.37
2022-11-01T15:04:20.254Z,26.90
2022-11-01T15:06:47.174Z,27.87
2022-11-01T15:12:09.650Z,27.63
2022-11-01T15:14:36.260Z,26.90
2022-11-01T15:17:03.065Z,25.50
2022-11-01T15:19:32.451Z,27.87
2022-11-01T15:22:03.260Z,28.97
2022-11-01T15:24:33.022Z,29.00
2022-11-01T15:27:12.119Z,29.20
2022-11-01T15:29:42.249Z,27.40
2022-11-01T15:32:17.525Z,28.73
2022-11-01T15:34:50.718Z,26.93
2022-11-01T15:37:21.288Z,26.00
2022-11-01T15:39:48.724Z,23.27
2022-11-01T15:42:16.005Z,24.23
2022-11-01T15:44:46.109Z,25.30
2022-11-01T15:47:17.009Z,25.03
2022-11-01T15:49:48.782Z,23.47
2022-11-01T15:52:16.292Z,24.30
2022-11-01T15:54:45.375Z,25.00
2022-11-01T15:57:22.570Z,24.57
2022-11-01T15:59:54.222Z,25.37
2022-11-01T16:02:23.132Z,23.13
2022-11-01T16:04:49.873Z,23.47
2022-11-01T16:07:17.478Z,24.20
2022-11-01T16:09:46.571Z,24.37
2022-11-01T16:12:15.764Z,22.60
2022-11-01T16:14:42.460Z,22.77
2022-11-01T16:17:23.021Z,21.70
2022-11-01T16:19:51.529Z,23.87
2022-11-01T16:22:39.258Z,24.80
2022-11-01T16:25:10.243Z,21.70
2022-11-01T16:27:55.529Z,23.43
2022-11-01T16:30:34.572Z,22.70
2022-11-01T16:33:08.455Z,22.37
2022-11-01T16:35:35.652Z,23.93
2022-11-01T16:38:02.561Z,23.10
2022-11-01T16:40:34.954Z,22.17
2022-11-01T16:43:01.526Z,23.63
2022-11-01T16:45:28.190Z,23.97
2022-11-01T16:47:59.506Z,24.00
2022-11-01T16:50:26.295Z,23.77
2022-11-01T16:52:54.903Z,25.53
2022-11-01T16:55:25.403Z,26.93
2022-11-01T16:57:55.573Z,26.03
2022-11-01T17:00:22.392Z,26.63
2022-11-01T17:02:49.155Z,27.10
2022-11-01T17:05:21.797Z,27.60
2022-11-01T17:07:49.844Z,27.60
2022-11-01T17:10:17.393Z,27.83
2022-11-01T17:12:44.171Z,27.87
2022-11-01T17:15:16.476Z,30.17
2022-11-01T17:17:43.646Z,29.63
2022-11-01T17:20:23.841Z,29.77
2022-11-01T17:22:51.857Z,29.73
2022-11-01T17:25:20.791Z,30.83
2022-11-01T17:27:52.804Z,29.13
2022-11-01T17:30:19.720Z,28.90
2022-11-01T17:32:47.097Z,29.60
2022-11-01T17:35:15.411Z,29.17
2022-11-01T17:37:42.529Z,29.13
2022-11-01T17:40:19.696Z,27.00
2022-11-01T17:42:48.405Z,29.13
2022-11-01T17:45:15.240Z,28.33
2022-11-01T17:47:42.975Z,29.33
2022-11-01T17:50:13.291Z,26.00
2022-11-01T17:52:44.164Z,27.20
2022-11-01T17:55:11.704Z,26.07
2022-11-01T17:57:40.311Z,27.37
2022-11-01T18:00:08.120Z,32.00
2022-11-01T18:02:39.558Z,26.80
2022-11-01T18:05:07.053Z,25.73
2022-11-01T18:07:41.796Z,26.87
2022-11-01T18:10:13.705Z,24.03
2022-11-01T18:12:45.943Z,26.47
2022-11-01T18:15:18.242Z,26.60
2022-11-01T18:17:48.454Z,25.83
2022-11-01T18:20:20.504Z,24.20
2022-11-01T18:22:55.887Z,25.67
2022-11-01T18:25:31.860Z,25.43
2022-11-01T18:28:01.695Z,25.67
2022-11-01T18:30:29.207Z,26.40
2022-11-01T18:33:14.604Z,26.40
2022-11-01T18:35:45.027Z,24.90
2022-11-01T18:38:12.727Z,26.03
2022-11-01T18:43:53.011Z,25.47
2022-11-01T18:46:25.674Z,27.37
2022-11-01T18:49:01.862Z,26.90
2022-11-01T18:51:29.456Z,25.40
2022-11-01T18:54:04.643Z,25.80
2022-11-01T18:56:32.975Z,29.63
2022-11-01T18:59:01.732Z,26.43
2022-11-01T19:01:32.605Z,27.20
2022-11-01T19:04:02.981Z,28.33
2022-11-01T19:06:29.796Z,28.57
2022-11-01T19:08:57.267Z,28.77
2022-11-01T19:11:27.608Z,27.23
2022-11-01T19:13:56.113Z,26.93
2022-11-01T19:16:23.359Z,29.20
2022-11-01T19:18:50.586Z,29.03
2022-11-01T19:21:18.675Z,30.20
2022-11-01T19:23:48.450Z,30.63
2022-11-01T19:26:33.984Z,31.43
2022-11-01T19:29:00.781Z,31.23
2022-11-01T19:31:30.399Z,32.13
2022-11-01T19:34:02.530Z,32.63
2022-11-01T19:39:17.030Z,32.10
2022-11-01T19:41:47.480Z,31.03
2022-11-01T19:44:20.342Z,32.67
2022-11-01T19:46:48.847Z,32.80
2022-11-01T19:49:25.749Z,32.00
2022-11-01T19:52:13.146Z,31.80
2022-11-01T19:54:42.122Z,32.27
2022-11-01T19:57:16.541Z,32.50
2022-11-01T19:59:44.591Z,31.27
2022-11-01T20:02:15.244Z,32.77
2022-11-01T20:04:42.172Z,33.87
2022-11-01T20:07:18.493Z,31.77
2022-11-01T20:09:47.520Z,32.97
2022-11-01T20:12:20.053Z,32.00
2022-11-01T20:14:48.806Z,30.73
2022-11-01T20:17:18.236Z,31.80
2022-11-01T20:19:47.642Z,31.37
2022-11-01T20:22:14.447Z,31.83
2022-11-01T20:24:43.309Z,31.30
2022-11-01T20:27:11.197Z,31.40
2022-11-01T20:29:39.275Z,29.57
2022-11-01T20:32:08.884Z,30.13
2022-11-01T20:34:36.415Z,29.37
2022-11-01T20:37:27.341Z,30.73
2022-11-01T20:39:53.570Z,30.40
2022-11-01T20:42:22.726Z,30.60
2022-11-01T20:44:50.292Z,30.00
2022-11-01T20:47:16.941Z,30.13
2022-11-01T20:49:43.763Z,32.00
2022-11-01T20:52:38.191Z,29.83
2022-11-01T20:54:57.726Z,31.13
2022-11-01T20:57:28.315Z,31.90
2022-11-01T20:59:55.835Z,30.87
2022-11-01T21:02:22.678Z,32.53
2022-11-01T21:04:51.869Z,31.80
2022-11-01T21:07:18.592Z,33.17
2022-11-01T21:09:46.993Z,32.50
2022-11-01T21:12:32.814Z,30.93
2022-11-01T21:15:04.091Z,32.03
2022-11-01T21:17:31.167Z,31.90
2022-11-01T21:19:58.016Z,32.00
2022-11-01T21:22:25.445Z,31.67
2022-11-01T21:24:55.065Z,29.97
2022-11-01T21:27:32.552Z,28.80
2022-11-01T21:30:19.451Z,29.97
2022-11-01T21:32:46.735Z,26.67
2022-11-01T21:35:34.540Z,27.43
2022-11-01T21:38:03.645Z,27.07
2022-11-01T21:40:30.633Z,26.57
2022-11-01T21:42:57.814Z,25.37
2022-11-01T21:45:31.259Z,24.47
2022-11-01T21:48:00.757Z,24.07
2022-11-01T21:50:27.860Z,25.37
2022-11-01T21:52:55.251Z,24.73
2022-11-01T21:55:22.070Z,25.07
2022-11-01T21:57:48.850Z,25.80
2022-11-01T22:00:16.522Z,25.70
2022-11-01T22:02:43.900Z,26.17
2022-11-01T22:05:10.679Z,22.23
2022-11-01T22:07:37.266Z,21.97
2022-11-01T22:10:04.127Z,21.20
2022-11-01T22:12:30.822Z,21.83
2022-11-01T22:14:57.476Z,21.90
2022-11-01T22:17:24.268Z,20.43
2022-11-01T22:19:50.800Z,20.27
2022-11-01T22:22:17.473Z,19.33
2022-11-01T22:24:44.131Z,17.60
2022-11-01T22:27:10.827Z,17.13
2022-11-01T22:29:37.474Z,16.60
2022-11-01T22:32:05.072Z,14.27
2022-11-01T22:34:31.719Z,13.87
2022-11-01T22:36:58.436Z,13.27
2022-11-01T22:39:27.969Z,13.90
2022-11-01T22:41:54.602Z,11.97
2022-11-01T22:44:25.391Z,11.60
2022-11-01T22:46:57.925Z,11.40
2022-11-01T22:49:29.481Z,10.60
2022-11-01T22:51:56.818Z,10.50
2022-11-01T22:54:30.550Z,11.37
2022-11-01T22:57:01.749Z,9.90
2022-11-01T22:59:32.844Z,9.67
2022-11-01T23:02:17.029Z,9.20
2022-11-01T23:04:43.663Z,9.40
2022-11-01T23:10:34.075Z,10.20
2022-11-01T23:13:31.722Z,10.37
2022-11-01T23:16:22.243Z,11.00
2022-11-01T23:21:33.471Z,13.13
2022-11-01T23:23:59.993Z,13.20
2022-11-01T23:26:26.581Z,12.97
2022-11-01T23:28:53.450Z,13.33
2022-11-01T23:31:20.108Z,13.87
2022-11-01T23:33:47.443Z,13.43
2022-11-01T23:36:26.918Z,14.37
2022-11-01T23:39:00.491Z,14.63
2022-11-01T23:41:34.397Z,14.73
2022-11-01T23:44:01.772Z,14.37
2022-11-01T23:46:28.357Z,15.97
2022-11-01T23:49:01.698Z,15.30
2022-11-01T23:51:28.300Z,16.63
2022-11-01T23:53:54.969Z,16.17
2022-11-01T23:56:22.092Z,17.00
2022-11-01T23:58:50.692Z,17.17
